Time;durP1;ratioP1;P1;durP2;ratioP2;P2;SDS_P1;SDS_P2;PMS_P1;PMS_P2;Temp;Humidity;BMP_temperature;BMP_pressure;BME280_temperature;BME280_humidity;BME280_pressure;Samples;Min_cycle;Max_cycle;Signal;HPM_P1;HPM_P2
2022/06/10 00:00:47;;;;;;;8.20;2.40;;;12.40;99.90;;;;;;4987567;28;20083;-80
2022/06/10 00:03:15;;;;;;;15.63;2.90;;;12.40;99.90;;;;;;4996585;28;20410;-79
2022/06/10 00:05:47;;;;;;;15.90;2.67;;;12.40;99.90;;;;;;4960215;28;20121;-79
2022/06/10 00:08:17;;;;;;;8.00;2.33;;;12.40;99.90;;;;;;4974227;28;20121;-80
2022/06/10 00:10:49;;;;;;;14.13;3.00;;;12.40;99.90;;;;;;4974427;28;20467;-79
2022/06/10 00:13:15;;;;;;;18.77;2.78;;;12.40;99.90;;;;;;4976362;28;20038;-81
2022/06/10 00:15:45;;;;;;;15.70;2.63;;;12.30;99.90;;;;;;4975680;28;20452;-80
2022/06/10 00:18:13;;;;;;;11.32;2.42;;;12.30;99.90;;;;;;4977502;28;20052;-81
2022/06/10 00:20:39;;;;;;;9.45;2.72;;;12.20;99.90;;;;;;4983399;28;20478;-80
2022/06/10 00:23:05;;;;;;;10.98;2.90;;;12.20;99.90;;;;;;4987494;28;20121;-80
2022/06/10 00:25:31;;;;;;;11.23;3.30;;;12.20;99.90;;;;;;4976984;28;20409;-80
2022/06/10 00:27:57;;;;;;;9.45;2.60;;;12.20;99.90;;;;;;4972992;28;20116;-80
2022/06/10 00:30:26;;;;;;;10.95;2.90;;;12.20;99.90;;;;;;4981761;28;20034;-81
2022/06/10 00:32:53;;;;;;;13.02;2.92;;;12.20;99.90;;;;;;5012061;28;20045;-81
2022/06/10 00:35:59;;;;;;;14.65;2.95;;;12.20;99.90;;;;;;4995336;28;20049;-78
2022/06/10 00:38:25;;;;;;;;;;;12.10;99.90;;;;;;5009712;28;20041;-79
2022/06/10 00:40:54;;;;;;;14.63;3.03;;;12.10;99.90;;;;;;4975349;28;20830;-81
2022/06/10 00:43:24;;;;;;;10.90;3.13;;;12.10;99.90;;;;;;4988402;28;20061;-79
2022/06/10 00:46:33;;;;;;;12.43;2.90;;;12.10;99.90;;;;;;4994805;28;20203;-80
2022/06/10 00:49:05;;;;;;;14.38;3.00;;;12.00;99.90;;;;;;4994942;28;20053;-80
2022/06/10 00:51:47;;;;;;;14.45;3.30;;;12.00;99.90;;;;;;4994232;28;20484;-80
2022/06/10 00:54:30;;;;;;;13.70;3.00;;;11.90;99.90;;;;;;5014183;28;20061;-80
2022/06/10 00:57:19;;;;;;;15.80;3.65;;;12.00;99.90;;;;;;4988648;28;20049;-81
2022/06/10 01:00:09;;;;;;;14.07;3.08;;;12.00;99.90;;;;;;5007883;28;20069;-81
2022/06/10 01:02:35;;;;;;;13.80;3.60;;;11.90;99.90;;;;;;4991497;28;20055;-81
2022/06/10 01:05:06;;;;;;;14.32;3.20;;;11.90;99.90;;;;;;4997054;28;20103;-80
2022/06/10 01:07:36;;;;;;;16.08;3.40;;;11.90;99.90;;;;;;5006177;28;20042;-80
2022/06/10 01:10:06;;;;;;;10.57;3.00;;;11.90;99.90;;;;;;4975486;28;20041;-79
2022/06/10 01:12:57;;;;;;;14.23;3.97;;;11.90;99.90;;;;;;4989041;28;20046;-79
2022/06/10 01:15:57;;;;;;;12.15;3.15;;;11.90;99.90;;;;;;5001307;28;20042;-80
2022/06/10 01:18:31;;;;;;;17.45;3.78;;;11.80;99.90;;;;;;5004496;28;20051;-80
2022/06/10 01:21:36;;;;;;;14.05;3.40;;;11.90;99.90;;;;;;5006826;28;20045;-81
2022/06/10 01:24:53;;;;;;;10.10;3.25;;;11.80;99.90;;;;;;4995740;28;20049;-81
2022/06/10 01:27:48;;;;;;;12.35;3.28;;;11.80;99.90;;;;;;4912748;29;20047;-81
2022/06/10 01:30:41;;;;;;;11.65;3.53;;;11.60;99.90;;;;;;4912063;29;21634;-81
2022/06/10 01:33:20;;;;;;;12.50;3.90;;;11.70;99.90;;;;;;4924635;29;20063;-81
2022/06/10 01:36:03;;;;;;;12.95;3.20;;;11.70;99.90;;;;;;4910619;29;20094;-80
2022/06/10 01:38:51;;;;;;;13.15;3.47;;;11.70;99.90;;;;;;4895797;29;20523;-79
2022/06/10 01:41:37;;;;;;;13.82;3.55;;;11.60;99.90;;;;;;4907995;28;20048;-80
2022/06/10 01:44:21;;;;;;;13.07;3.40;;;11.60;99.90;;;;;;4900845;29;20051;-80
2022/06/10 01:47:11;;;;;;;15.10;3.50;;;11.60;99.90;;;;;;4894250;29;20054;-82
2022/06/10 01:49:49;;;;;;;23.52;3.97;;;11.60;99.90;;;;;;4894816;29;20060;-81
2022/06/10 01:52:23;;;;;;;13.13;3.28;;;11.70;99.90;;;;;;4926414;28;20045;-79
2022/06/10 01:55:11;;;;;;;15.13;3.80;;;11.50;99.90;;;;;;4892081;29;20169;-81
2022/06/10 01:57:44;;;;;;;14.63;3.20;;;11.50;99.90;;;;;;4894716;29;20040;-80
2022/06/10 02:00:24;;;;;;;17.98;3.53;;;11.50;99.90;;;;;;4914164;28;20214;-80
2022/06/10 02:02:57;;;;;;;13.82;3.38;;;11.30;99.90;;;;;;5000249;28;20108;-79
2022/06/10 02:05:24;;;;;;;12.10;3.42;;;11.40;99.90;;;;;;4998170;28;20057;-77
2022/06/10 02:08:07;;;;;;;14.95;4.03;;;11.50;99.90;;;;;;4992718;28;20065;-80
2022/06/10 02:10:46;;;;;;;14.00;3.72;;;11.40;99.90;;;;;;5007274;28;20165;-80
2022/06/10 02:13:22;;;;;;;15.52;3.53;;;11.40;99.90;;;;;;5018863;28;20138;-81
2022/06/10 02:15:55;;;;;;;11.57;3.40;;;11.50;99.90;;;;;;5015718;28;20091;-80
2022/06/10 02:18:45;;;;;;;17.40;3.78;;;11.20;99.90;;;;;;5005524;28;20156;-82
2022/06/10 02:21:29;;;;;;;12.07;3.67;;;11.40;99.90;;;;;;4930928;29;20043;-80
2022/06/10 02:24:10;;;;;;;12.63;3.40;;;11.20;99.90;;;;;;4946637;29;20194;-80
2022/06/10 02:26:38;;;;;;;14.38;3.95;;;11.30;99.90;;;;;;4915330;29;20062;-80
2022/06/10 02:29:10;;;;;;;11.48;3.60;;;11.20;99.90;;;;;;4933591;29;20078;-81
2022/06/10 02:31:43;;;;;;;13.40;3.90;;;11.30;99.90;;;;;;4946699;28;20069;-80
2022/06/10 02:34:08;;;;;;;13.13;3.63;;;11.30;99.90;;;;;;4951104;28;20069;-81
2022/06/10 02:36:59;;;;;;;14.27;3.55;;;11.20;99.90;;;;;;4927819;28;20047;-81
2022/06/10 02:39:49;;;;;;;17.65;3.65;;;11.20;99.90;;;;;;4878700;29;20095;-80
2022/06/10 02:42:23;;;;;;;14.30;3.60;;;11.20;99.90;;;;;;4892582;29;20072;-81
2022/06/10 02:45:18;;;;;;;17.00;3.90;;;11.20;99.90;;;;;;4887527;29;20059;-80
2022/06/10 02:47:46;;;;;;;14.82;3.47;;;11.10;99.90;;;;;;4876522;29;20416;-80
2022/06/10 02:50:38;;;;;;;12.75;4.13;;;11.10;99.90;;;;;;4907415;29;20063;-81
2022/06/10 02:53:08;;;;;;;13.57;3.55;;;11.10;99.90;;;;;;4894288;29;20036;-81
2022/06/10 02:55:34;;;;;;;12.55;3.58;;;11.10;99.90;;;;;;4906868;29;20130;-81
2022/06/10 03:01:13;;;;;;;14.57;3.80;;;11.10;99.90;;;;;;4916539;29;20165;-80
2022/06/10 03:03:51;;;;;;;16.25;3.78;;;11.10;99.90;;;;;;4925889;29;20483;-81
2022/06/10 03:06:47;;;;;;;18.27;4.13;;;11.10;99.90;;;;;;4913766;29;20043;-79
2022/06/10 03:09:25;;;;;;;14.35;4.00;;;11.10;99.90;;;;;;4929602;29;20483;-79
2022/06/10 03:11:56;;;;;;;13.95;4.05;;;11.10;99.90;;;;;;4923030;29;20047;-81
2022/06/10 03:14:25;;;;;;;12.45;3.80;;;11.00;99.90;;;;;;4927125;29;20044;-79
2022/06/10 03:17:11;;;;;;;12.30;3.85;;;11.10;99.90;;;;;;4981598;28;20137;-80
2022/06/10 03:19:59;;;;;;;11.40;3.83;;;11.00;99.90;;;;;;5010281;28;20033;-80
2022/06/10 03:22:41;;;;;;;14.85;3.88;;;11.10;99.90;;;;;;5009661;28;20038;-80
2022/06/10 03:25:20;;;;;;;16.40;4.13;;;11.00;99.90;;;;;;5008412;28;20050;-81
2022/06/10 03:28:23;;;;;;;14.98;3.75;;;11.00;99.90;;;;;;4979822;28;20155;-80
2022/06/10 03:31:08;;;;;;;17.92;3.80;;;11.10;99.90;;;;;;4982913;28;20058;-79
2022/06/10 03:33:46;;;;;;;13.90;4.18;;;11.10;99.90;;;;;;5000162;28;20058;-78
2022/06/10 03:36:16;;;;;;;12.25;4.18;;;11.10;99.90;;;;;;4998471;28;20057;-78
2022/06/10 03:38:47;;;;;;;15.25;3.90;;;11.10;99.90;;;;;;4974755;28;20034;-81
2022/06/10 03:41:37;;;;;;;15.13;4.00;;;11.10;99.90;;;;;;4973602;28;20077;-80
2022/06/10 03:44:12;;;;;;;17.60;4.18;;;11.20;99.90;;;;;;4976197;28;20049;-79
2022/06/10 03:46:44;;;;;;;23.38;4.50;;;11.10;99.90;;;;;;4988556;28;20038;-80
2022/06/10 03:49:13;;;;;;;13.88;4.10;;;11.30;99.90;;;;;;4956594;28;20034;-80
2022/06/10 03:51:59;;;;;;;16.10;3.83;;;11.50;99.90;;;;;;4993492;28;20038;-80
2022/06/10 03:54:25;;;;;;;14.02;3.72;;;11.30;99.90;;;;;;4977266;28;20107;-80
2022/06/10 03:56:52;;;;;;;12.73;3.50;;;11.30;99.90;;;;;;4994049;28;20045;-79
2022/06/10 03:59:19;;;;;;;17.17;4.18;;;11.40;99.90;;;;;;4975419;28;20038;-80
2022/06/10 04:01:45;;;;;;;16.58;4.22;;;11.60;99.90;;;;;;4994511;28;20433;-81
2022/06/10 04:04:10;;;;;;;17.75;4.07;;;11.50;99.90;;;;;;4957885;28;20047;-80
2022/06/10 04:06:36;;;;;;;15.65;3.78;;;11.50;99.90;;;;;;4973669;28;20048;-80
2022/06/10 04:09:03;;;;;;;17.80;3.33;;;11.60;99.90;;;;;;4975734;28;20049;-81
2022/06/10 04:11:28;;;;;;;13.20;3.50;;;11.60;99.90;;;;;;4959534;28;20034;-80
2022/06/10 04:13:54;;;;;;;15.02;3.70;;;11.80;99.90;;;;;;4979501;28;20429;-80
2022/06/10 04:16:20;;;;;;;13.68;3.72;;;11.80;99.90;;;;;;4999104;28;20508;-80
2022/06/10 04:18:46;;;;;;;20.77;3.58;;;11.90;99.90;;;;;;4998757;28;20117;-82
2022/06/10 04:21:14;;;;;;;17.73;3.53;;;12.10;99.90;;;;;;4961265;28;20085;-88
2022/06/10 04:23:39;;;;;;;18.00;3.50;;;12.10;99.90;;;;;;5001776;28;20085;-81
2022/06/10 04:26:06;;;;;;;15.60;3.67;;;12.30;99.90;;;;;;4980502;28;20053;-81
2022/06/10 04:28:31;;;;;;;12.93;3.45;;;12.60;99.90;;;;;;5009748;28;20176;-81
2022/06/10 04:30:57;;;;;;;18.35;3.75;;;12.70;99.90;;;;;;4988717;28;20129;-80
2022/06/10 04:33:23;;;;;;;13.63;3.00;;;13.20;99.90;;;;;;4999212;28;20041;-80
2022/06/10 04:36:09;;;;;;;12.10;3.20;;;14.10;99.90;;;;;;5010208;28;20174;-80
2022/06/10 04:38:34;;;;;;;9.82;3.10;;;14.80;99.90;;;;;;4993583;28;20042;-80
2022/06/10 04:41:00;;;;;;;15.88;2.97;;;15.60;99.90;;;;;;5018776;28;20041;-79
2022/06/10 04:43:27;;;;;;;9.90;2.83;;;16.10;99.90;;;;;;5020908;28;20404;-81
2022/06/10 04:45:56;;;;;;;12.25;2.60;;;16.70;99.90;;;;;;4998439;28;20108;-81
2022/06/10 04:48:22;;;;;;;13.13;3.10;;;17.20;99.90;;;;;;5011379;28;20038;-82
2022/06/10 04:50:47;;;;;;;16.05;3.30;;;17.50;99.90;;;;;;4996608;28;20045;-82
2022/06/10 04:53:14;;;;;;;20.45;3.00;;;18.00;99.90;;;;;;5014636;28;20376;-82
2022/06/10 04:55:40;;;;;;;13.70;2.83;;;18.00;99.90;;;;;;5000651;28;20069;-81
2022/06/10 04:58:06;;;;;;;16.52;3.20;;;18.10;99.90;;;;;;5000599;28;20049;-81
2022/06/10 05:00:37;;;;;;;13.10;2.80;;;17.50;99.90;;;;;;5002432;28;20042;-79
2022/06/10 05:03:04;;;;;;;12.77;3.10;;;17.00;99.90;;;;;;5016616;28;20388;-80
2022/06/10 05:05:30;;;;;;;11.80;2.58;;;16.50;99.90;;;;;;5011479;28;20044;-81
2022/06/10 05:07:57;;;;;;;16.25;3.40;;;16.10;99.90;;;;;;4990238;28;20046;-83
2022/06/10 05:10:22;;;;;;;13.35;2.83;;;15.70;99.90;;;;;;5012996;28;20061;-81
2022/06/10 05:12:49;;;;;;;20.02;3.65;;;15.50;99.90;;;;;;4999504;28;20506;-82
2022/06/10 05:15:20;;;;;;;20.60;3.08;;;15.40;99.90;;;;;;4999444;28;20092;-80
2022/06/10 05:17:46;;;;;;;23.98;3.45;;;15.20;99.90;;;;;;4993495;28;20056;-83
2022/06/10 05:20:18;;;;;;;16.02;2.95;;;15.10;99.90;;;;;;4990151;28;20053;-82
2022/06/10 05:22:44;;;;;;;17.67;3.38;;;15.10;99.90;;;;;;4978323;28;20124;-81
2022/06/10 05:25:20;;;;;;;11.68;2.92;;;15.00;99.90;;;;;;5013171;28;20179;-82
2022/06/10 05:27:47;;;;;;;12.05;3.15;;;15.00;99.90;;;;;;5016317;28;20247;-81
2022/06/10 05:30:18;;;;;;;21.52;3.55;;;15.10;99.90;;;;;;5000002;28;20041;-81
2022/06/10 05:32:44;;;;;;;13.10;3.30;;;15.00;99.90;;;;;;5002233;28;20445;-83
2022/06/10 05:35:11;;;;;;;11.10;2.92;;;15.00;99.90;;;;;;5001968;28;20049;-83
2022/06/10 05:37:37;;;;;;;19.23;3.60;;;15.10;99.90;;;;;;4996527;28;20037;-84
2022/06/10 05:40:03;;;;;;;19.13;3.33;;;15.10;99.90;;;;;;4994933;28;20483;-83
2022/06/10 05:42:29;;;;;;;20.27;3.83;;;15.20;99.90;;;;;;5010615;28;20477;-82
2022/06/10 05:44:55;;;;;;;17.08;3.17;;;15.30;99.90;;;;;;4992257;28;20038;-81
2022/06/10 05:47:27;;;;;;;17.48;2.78;;;15.20;99.90;;;;;;4992038;28;20152;-82
2022/06/10 05:49:56;;;;;;;15.23;3.33;;;15.30;99.90;;;;;;5013269;28;20496;-83
2022/06/10 05:52:25;;;;;;;18.02;3.42;;;15.30;99.90;;;;;;5000639;28;20034;-83
2022/06/10 05:54:53;;;;;;;19.65;2.88;;;15.30;99.90;;;;;;5011254;28;20045;-84
2022/06/10 05:57:20;;;;;;;15.15;3.03;;;15.40;99.90;;;;;;4999999;28;20131;-83
2022/06/10 05:59:47;;;;;;;14.23;2.95;;;15.50;99.90;;;;;;5008345;28;20041;-82
2022/06/10 06:02:16;;;;;;;15.05;2.90;;;15.60;99.90;;;;;;4977914;28;20049;-82
2022/06/10 06:04:45;;;;;;;14.63;3.35;;;15.60;99.90;;;;;;4991109;28;20464;-81
2022/06/10 06:07:20;;;;;;;11.25;2.55;;;15.70;99.90;;;;;;4994207;28;20042;-81
2022/06/10 06:09:46;;;;;;;14.50;3.30;;;15.80;99.90;;;;;;4991118;28;20552;-81
2022/06/10 06:12:15;;;;;;;19.70;3.55;;;15.90;99.90;;;;;;5006655;28;20038;-82
2022/06/10 06:14:41;;;;;;;13.27;2.80;;;16.00;99.90;;;;;;4991667;28;20050;-82
2022/06/10 06:17:07;;;;;;;18.23;3.35;;;16.00;99.90;;;;;;4992265;28;20057;-82
2022/06/10 06:19:34;;;;;;;14.80;3.20;;;16.10;99.90;;;;;;5004952;28;20053;-81
2022/06/10 06:22:00;;;;;;;12.48;3.13;;;16.20;99.90;;;;;;5011428;28;20088;-85
2022/06/10 06:24:26;;;;;;;19.23;3.63;;;16.30;99.90;;;;;;5012345;28;20503;-82
2022/06/10 06:26:53;;;;;;;14.88;3.60;;;16.30;99.90;;;;;;4996092;28;20549;-83
2022/06/10 06:29:20;;;;;;;18.58;3.47;;;16.50;99.90;;;;;;5019953;28;20484;-78
2022/06/10 06:31:46;;;;;;;14.13;3.35;;;16.50;99.90;;;;;;5015727;28;20061;-78
2022/06/10 06:34:14;;;;;;;15.73;3.40;;;16.60;99.90;;;;;;4993678;28;20034;-83
2022/06/10 06:36:59;;;;;;;14.07;3.88;;;16.50;99.90;;;;;;4977562;28;20069;-81
2022/06/10 06:39:26;;;;;;;18.77;3.80;;;16.40;99.90;;;;;;4991442;28;20053;-83
2022/06/10 06:41:54;;;;;;;12.40;3.70;;;16.20;99.90;;;;;;4975821;28;20173;-81
2022/06/10 06:44:20;;;;;;;15.45;3.65;;;16.10;99.90;;;;;;5006986;28;20113;-83
2022/06/10 06:46:46;;;;;;;15.48;3.80;;;15.90;99.90;;;;;;5005455;28;20042;-82
2022/06/10 06:49:23;;;;;;;15.82;3.75;;;16.00;99.90;;;;;;5009147;28;20088;-80
2022/06/10 06:51:49;;;;;;;13.13;3.30;;;16.00;99.90;;;;;;4992137;28;20132;-79
2022/06/10 06:54:16;;;;;;;19.95;4.50;;;16.20;99.90;;;;;;5000940;28;20421;-83
2022/06/10 06:56:46;;;;;;;18.17;4.00;;;16.30;99.90;;;;;;4980268;28;20092;-85
2022/06/10 06:59:11;;;;;;;17.73;3.65;;;16.50;99.90;;;;;;5008013;28;20049;-82
2022/06/10 07:01:37;;;;;;;16.55;4.07;;;16.80;99.90;;;;;;5006959;28;20048;-84
2022/06/10 07:04:04;;;;;;;20.08;4.18;;;16.90;99.90;;;;;;5013822;28;20050;-82
2022/06/10 07:06:35;;;;;;;20.65;4.05;;;16.90;99.90;;;;;;4995218;28;20398;-82
2022/06/10 07:09:02;;;;;;;16.92;3.15;;;17.00;99.90;;;;;;4993708;28;20473;-83
2022/06/10 07:11:27;;;;;;;14.73;3.35;;;17.10;99.90;;;;;;4998411;28;20107;-81
2022/06/10 07:13:53;;;;;;;15.55;3.53;;;17.30;99.90;;;;;;5013718;28;20049;-83
2022/06/10 07:16:19;;;;;;;15.07;3.35;;;17.40;99.90;;;;;;5000268;28;20103;-83
2022/06/10 07:18:45;;;;;;;15.40;3.90;;;17.40;99.90;;;;;;4999261;28;20088;-83
2022/06/10 07:21:10;;;;;;;13.48;3.35;;;17.30;99.90;;;;;;5009646;28;20450;-81
2022/06/10 07:23:39;;;;;;;13.98;3.63;;;17.30;99.90;;;;;;4994015;28;20093;-82
2022/06/10 07:26:05;;;;;;;12.30;3.70;;;17.20;99.90;;;;;;5014594;28;20069;-83
2022/06/10 07:28:31;;;;;;;17.05;4.07;;;17.20;99.90;;;;;;4982891;28;20052;-85
2022/06/10 07:30:57;;;;;;;14.27;3.53;;;17.10;99.90;;;;;;4999295;28;20129;-83
2022/06/10 07:33:23;;;;;;;12.73;3.70;;;17.20;99.90;;;;;;4998078;28;20065;-82
2022/06/10 07:35:48;;;;;;;14.73;4.35;;;17.30;99.90;;;;;;4996852;28;20037;-82
2022/06/10 07:38:14;;;;;;;15.30;4.10;;;17.30;99.90;;;;;;5006303;28;22446;-82
2022/06/10 07:43:29;;;;;;;13.02;4.40;;;17.30;99.90;;;;;;4996401;28;20114;-83
2022/06/10 07:45:54;;;;;;;13.73;3.92;;;17.40;99.90;;;;;;5005028;28;20566;-81
2022/06/10 07:48:21;;;;;;;12.55;4.28;;;17.50;99.90;;;;;;5006588;28;20053;-80
2022/06/10 07:50:50;;;;;;;18.05;4.65;;;17.70;99.90;;;;;;4993899;28;20092;-79
2022/06/10 07:53:17;;;;;;;12.32;3.67;;;17.70;99.90;;;;;;4996490;28;20042;-78
2022/06/10 07:55:46;;;;;;;14.10;4.03;;;17.70;99.90;;;;;;4961955;28;20042;-79
2022/06/10 07:58:14;;;;;;;10.45;3.95;;;17.70;99.90;;;;;;4996597;28;20116;-76
2022/06/10 08:00:40;;;;;;;9.95;3.83;;;17.80;99.90;;;;;;4977826;28;20497;-79
2022/06/10 08:03:06;;;;;;;14.18;4.18;;;17.80;99.90;;;;;;4981247;28;20169;-80
2022/06/10 08:05:35;;;;;;;13.68;3.83;;;17.80;99.90;;;;;;5009392;28;20046;-78
2022/06/10 08:08:02;;;;;;;14.02;3.92;;;17.70;99.90;;;;;;4994984;28;20034;-78
2022/06/10 08:10:32;;;;;;;11.32;3.97;;;17.80;99.90;;;;;;5011813;28;20049;-78
2022/06/10 08:13:01;;;;;;;15.00;4.07;;;17.80;99.90;;;;;;4994957;28;20049;-80
2022/06/10 08:15:32;;;;;;;15.18;3.72;;;17.70;99.90;;;;;;5011687;28;20037;-79
2022/06/10 08:17:58;;;;;;;15.23;3.50;;;17.70;99.90;;;;;;4991651;28;20042;-78
2022/06/10 08:23:16;;;;;;;15.35;3.78;;;17.80;99.90;;;;;;5007488;28;20508;-79
2022/06/10 08:25:43;;;;;;;11.52;3.72;;;17.90;99.90;;;;;;4975144;28;20051;-77
2022/06/10 08:28:10;;;;;;;15.68;4.63;;;17.80;99.90;;;;;;4991527;28;20038;-79
2022/06/10 08:30:36;;;;;;;14.85;3.97;;;17.80;99.90;;;;;;5007598;28;20081;-78
2022/06/10 08:33:03;;;;;;;15.50;4.55;;;17.60;99.90;;;;;;5007898;28;20045;-78
2022/06/10 08:35:34;;;;;;;14.50;4.50;;;17.70;99.90;;;;;;4974965;28;20042;-80
2022/06/10 08:38:01;;;;;;;20.83;4.50;;;17.50;99.90;;;;;;5007831;28;20053;-77
2022/06/10 08:40:44;;;;;;;14.20;4.60;;;17.60;99.90;;;;;;4991215;28;20528;-78
2022/06/10 08:43:31;;;;;;;15.00;4.60;;;17.80;99.90;;;;;;4991126;28;20053;-77
2022/06/10 08:46:19;;;;;;;18.35;4.93;;;18.00;99.90;;;;;;4975564;28;20066;-80
2022/06/10 08:49:03;;;;;;;17.85;4.55;;;18.10;99.90;;;;;;4975346;28;20038;-81
2022/06/10 08:51:46;;;;;;;15.00;4.57;;;18.00;99.90;;;;;;5006754;28;20516;-77
2022/06/10 08:54:33;;;;;;;17.52;4.57;;;17.80;99.90;;;;;;5007863;28;20078;-80
2022/06/10 08:57:06;;;;;;;20.30;4.57;;;17.80;99.90;;;;;;4994763;28;20049;-81
2022/06/10 08:59:43;;;;;;;15.48;4.00;;;17.80;99.90;;;;;;4994465;28;20046;-80
2022/06/10 09:02:08;;;;;;;14.10;4.25;;;17.80;99.90;;;;;;5011259;28;20042;-81
2022/06/10 09:04:44;;;;;;;24.75;4.07;;;17.90;99.90;;;;;;5010288;28;20076;-79
2022/06/10 09:07:25;;;;;;;14.07;5.05;;;17.90;99.90;;;;;;5019445;28;20438;-80
2022/06/10 09:09:51;;;;;;;23.75;5.65;;;18.10;99.90;;;;;;5014093;28;20065;-80
2022/06/10 09:12:21;;;;;;;19.55;5.28;;;18.30;99.90;;;;;;5030599;28;20075;-80
2022/06/10 09:14:52;;;;;;;19.08;5.10;;;18.40;99.90;;;;;;5013294;28;20129;-79
2022/06/10 09:17:29;;;;;;;19.95;5.65;;;18.70;99.90;;;;;;5007009;28;20140;-80
2022/06/10 09:20:40;;;;;;;24.77;5.18;;;18.70;99.90;;;;;;4976894;28;20285;-79
2022/06/10 09:23:19;;;;;;;20.50;5.00;;;18.60;99.90;;;;;;4954156;28;20436;-78
2022/06/10 09:25:47;;;;;;;18.38;5.05;;;18.50;99.90;;;;;;4942228;28;20047;-78
2022/06/10 09:28:13;;;;;;;14.80;4.47;;;18.50;99.90;;;;;;4940688;28;20091;-80
2022/06/10 09:30:53;;;;;;;19.80;4.03;;;18.40;99.90;;;;;;4939171;28;20042;-80
2022/06/10 09:33:49;;;;;;;16.75;4.10;;;18.30;99.90;;;;;;4954756;28;20166;-81
2022/06/10 09:36:41;;;;;;;16.05;4.07;;;18.20;99.90;;;;;;4971466;28;20367;-82
2022/06/10 09:42:21;;;;;;;19.60;4.97;;;18.10;99.90;;;;;;4971188;28;20079;-79
2022/06/10 09:45:18;;;;;;;21.48;4.30;;;18.10;99.90;;;;;;4971204;28;20045;-79
2022/06/10 09:48:20;;;;;;;16.20;4.07;;;18.30;99.90;;;;;;4953819;28;20043;-79
2022/06/10 09:51:23;;;;;;;11.35;3.67;;;18.30;99.90;;;;;;4969988;28;20528;-80
2022/06/10 09:54:03;;;;;;;17.23;4.07;;;18.40;99.90;;;;;;4953882;28;20057;-78
2022/06/10 09:56:34;;;;;;;19.23;4.38;;;18.50;99.90;;;;;;4977113;28;20053;-81
2022/06/10 09:59:00;;;;;;;25.27;4.10;;;18.70;99.90;;;;;;4959847;28;20043;-79
2022/06/10 10:01:40;;;;;;;16.58;4.53;;;19.00;99.90;;;;;;5010262;28;20052;-78
2022/06/10 10:04:30;;;;;;;18.40;4.10;;;19.00;99.90;;;;;;5010342;28;20088;-80
2022/06/10 10:07:00;;;;;;;17.33;4.40;;;19.00;99.90;;;;;;5009975;28;20053;-78
2022/06/10 10:09:43;;;;;;;16.38;4.40;;;19.00;99.90;;;;;;5009892;28;20038;-78
2022/06/10 10:12:23;;;;;;;19.20;4.82;;;19.10;99.90;;;;;;5010268;28;20135;-81
2022/06/10 10:14:55;;;;;;;18.80;4.70;;;19.10;99.90;;;;;;5010103;28;20112;-81
2022/06/10 10:17:50;;;;;;;19.67;4.82;;;19.30;99.90;;;;;;5005722;28;20378;-80
2022/06/10 10:20:44;;;;;;;17.35;4.82;;;19.20;99.90;;;;;;5009942;28;20132;-78
2022/06/10 10:23:18;;;;;;;22.08;5.10;;;19.10;99.90;;;;;;5009913;28;20077;-81
2022/06/10 10:25:46;;;;;;;15.77;4.88;;;19.10;99.90;;;;;;4995235;28;20119;-81
2022/06/10 10:28:41;;;;;;;18.10;4.95;;;19.10;99.90;;;;;;4997345;28;20053;-79
2022/06/10 10:31:26;;;;;;;16.90;4.57;;;19.40;99.90;;;;;;4996650;28;20400;-78
2022/06/10 10:33:52;;;;;;;15.25;5.10;;;19.80;99.90;;;;;;5013962;28;20046;-79
2022/06/10 10:36:23;;;;;;;16.17;4.90;;;19.90;99.90;;;;;;4996239;28;20223;-78
2022/06/10 10:38:50;;;;;;;13.00;4.00;;;20.10;99.90;;;;;;4996962;28;20092;-80
2022/06/10 10:41:21;;;;;;;15.05;4.65;;;20.20;99.90;;;;;;5013509;28;20038;-78
2022/06/10 10:43:51;;;;;;;15.85;4.65;;;20.20;99.90;;;;;;4997313;28;20430;-80
2022/06/10 10:46:38;;;;;;;18.67;4.85;;;20.10;99.90;;;;;;5013493;28;20038;-79
2022/06/10 10:49:18;;;;;;;14.40;4.30;;;20.00;99.90;;;;;;4996960;28;20042;-79
2022/06/10 10:51:49;;;;;;;18.83;4.72;;;19.90;99.90;;;;;;5013709;28;20052;-81
2022/06/10 10:54:33;;;;;;;16.92;4.55;;;19.80;99.90;;;;;;4996152;28;20038;-77
2022/06/10 10:57:00;;;;;;;20.10;4.53;;;19.60;99.90;;;;;;5002235;28;20068;-77
2022/06/10 10:59:38;;;;;;;18.70;4.68;;;19.60;99.90;;;;;;4996827;28;20285;-79
2022/06/10 11:02:25;;;;;;;18.33;4.40;;;19.60;99.90;;;;;;4997085;28;20104;-79
2022/06/10 11:04:51;;;;;;;16.15;4.53;;;19.40;99.90;;;;;;4996500;28;20108;-79
2022/06/10 11:07:22;;;;;;;19.58;4.53;;;19.40;99.90;;;;;;4996503;28;20033;-78
2022/06/10 11:09:52;;;;;;;13.07;4.13;;;19.40;99.90;;;;;;4997014;28;20045;-78
2022/06/10 11:12:21;;;;;;;14.75;4.38;;;19.50;99.90;;;;;;4996644;28;20038;-80
2022/06/10 11:14:58;;;;;;;20.38;4.25;;;19.60;99.90;;;;;;4996903;28;20050;-79
2022/06/10 11:17:24;;;;;;;15.63;4.25;;;19.60;99.90;;;;;;4996798;28;20046;-80
2022/06/10 11:19:54;;;;;;;15.35;4.63;;;19.80;99.90;;;;;;4996564;28;20045;-78
2022/06/10 11:22:31;;;;;;;11.20;4.00;;;19.80;99.90;;;;;;4996062;28;20034;-79
2022/06/10 11:25:03;;;;;;;12.18;4.07;;;19.80;99.90;;;;;;5012602;28;20045;-78
2022/06/10 11:27:33;;;;;;;16.48;4.28;;;19.80;99.90;;;;;;4993285;28;20080;-80
2022/06/10 11:30:11;;;;;;;16.77;4.30;;;19.70;99.90;;;;;;5009691;28;20035;-79
2022/06/10 11:33:06;;;;;;;11.93;3.60;;;19.80;99.90;;;;;;5009539;28;20145;-80
2022/06/10 11:35:58;;;;;;;14.10;3.70;;;20.10;99.90;;;;;;5008779;28;20046;-80
2022/06/10 11:38:29;;;;;;;13.73;3.90;;;20.80;99.90;;;;;;4992045;28;20141;-80
2022/06/10 11:40:58;;;;;;;10.52;3.50;;;21.10;99.90;;;;;;4993017;28;20452;-80
2022/06/10 11:43:43;;;;;;;11.75;3.65;;;21.20;99.90;;;;;;4998006;28;20030;-79
2022/06/10 11:46:36;;;;;;;15.95;3.58;;;21.20;99.90;;;;;;4976472;28;20116;-80
2022/06/10 11:49:33;;;;;;;11.20;3.67;;;21.00;99.90;;;;;;4976271;28;20461;-78
2022/06/10 11:52:09;;;;;;;11.57;3.33;;;20.90;99.90;;;;;;4976400;28;20397;-79
2022/06/10 11:54:45;;;;;;;14.15;3.20;;;21.00;99.90;;;;;;4976534;28;20046;-78
2022/06/10 12:00:39;;;;;;;13.77;3.70;;;21.40;99.90;;;;;;4992566;28;20552;-79
2022/06/10 12:03:13;;;;;;;8.02;3.10;;;21.70;99.90;;;;;;4976438;28;20093;-80
2022/06/10 12:05:39;;;;;;;;;;;22.10;99.90;;;;;;4976326;28;20072;-80
2022/06/10 12:08:24;;;;;;;10.82;3.25;;;22.50;99.90;;;;;;4976016;28;19940;-78
2022/06/10 12:11:08;;;;;;;;;;;23.00;99.90;;;;;;4977091;28;20389;-79
2022/06/10 12:13:42;;;;;;;9.55;2.80;;;22.60;99.90;;;;;;4992405;28;19921;-80
2022/06/10 12:16:09;;;;;;;10.90;3.42;;;22.70;99.90;;;;;;4959787;28;20485;-78
2022/06/10 12:18:48;;;;;;;13.38;3.72;;;22.60;99.90;;;;;;4976202;28;20050;-79
2022/06/10 12:21:21;;;;;;;14.15;4.20;;;22.30;99.90;;;;;;4991442;28;20071;-79
2022/06/10 12:23:47;;;;;;;10.25;4.10;;;22.10;99.90;;;;;;4980300;28;20038;-78
2022/06/10 12:26:31;;;;;;;14.00;3.72;;;22.00;99.90;;;;;;4988947;28;20054;-78
2022/06/10 12:29:05;;;;;;;11.10;4.00;;;21.90;99.90;;;;;;4995829;28;20042;-80
2022/06/10 12:31:36;;;;;;;;;;;21.60;99.90;;;;;;5012425;28;20100;-81
2022/06/10 12:34:11;;;;;;;9.43;3.60;;;21.40;99.90;;;;;;5012941;28;19959;-80
2022/06/10 12:36:41;;;;;;;12.18;3.80;;;21.20;99.90;;;;;;4995077;28;20042;-81
2022/06/10 12:39:28;;;;;;;13.20;4.35;;;21.20;99.90;;;;;;4995141;28;20045;-78
2022/06/10 12:42:03;;;;;;;13.75;4.15;;;21.00;99.90;;;;;;4995125;28;20042;-78
2022/06/10 12:44:35;;;;;;;12.27;3.92;;;20.90;99.90;;;;;;4995116;28;20374;-78
2022/06/10 12:47:04;;;;;;;14.50;4.07;;;20.90;99.90;;;;;;5011770;28;20127;-79
2022/06/10 12:49:34;;;;;;;14.93;3.95;;;21.10;99.90;;;;;;5011142;28;20120;-78
2022/06/10 12:52:21;;;;;;;18.38;4.82;;;21.30;99.90;;;;;;4994502;28;20048;-80
2022/06/10 12:54:58;;;;;;;13.98;4.10;;;21.40;99.90;;;;;;4994878;28;20133;-79
2022/06/10 12:57:44;;;;;;;13.38;4.28;;;21.30;99.90;;;;;;4999873;28;20129;-79
2022/06/10 13:00:19;;;;;;;14.80;4.00;;;21.30;99.90;;;;;;4994600;28;20082;-78
2022/06/10 13:02:47;;;;;;;9.80;3.67;;;21.20;99.90;;;;;;5010610;28;20081;-78
2022/06/10 13:05:22;;;;;;;13.27;3.55;;;21.20;99.90;;;;;;4994203;28;20038;-79
2022/06/10 13:07:49;;;;;;;14.63;4.15;;;21.20;99.90;;;;;;4994228;28;20422;-81
2022/06/10 13:10:33;;;;;;;10.60;3.80;;;21.30;99.90;;;;;;5010836;28;20054;-78
2022/06/10 13:13:11;;;;;;;9.13;3.58;;;21.50;99.90;;;;;;4994952;28;20412;-80
2022/06/10 13:15:42;;;;;;;11.60;3.70;;;21.50;99.90;;;;;;5012679;28;20050;-81
2022/06/10 13:18:17;;;;;;;15.85;4.32;;;21.60;99.90;;;;;;4997616;28;20049;-79
2022/06/10 13:20:44;;;;;;;;;;;21.60;99.90;;;;;;4975498;28;20050;-79
2022/06/10 13:23:14;;;;;;;9.75;3.35;;;21.60;99.90;;;;;;4975235;28;19918;-80
2022/06/10 13:25:47;;;;;;;11.65;3.00;;;22.00;99.90;;;;;;4958819;28;20086;-80
2022/06/10 13:28:26;;;;;;;10.55;3.45;;;22.40;99.90;;;;;;4974759;28;20134;-80